Time;durP1;ratioP1;P1;durP2;ratioP2;P2;SDS_P1;SDS_P2;PMS_P1;PMS_P2;Temp;Humidity;BMP_temperature;BMP_pressure;BME280_temperature;BME280_humidity;BME280_pressure;Samples;Min_cycle;Max_cycle;Signal;HPM_P1;HPM_P2
2023/07/27 00:00:57;;;;;;;3.33;1.35;;;;;;;17.30;61.12;94284.19;5097299;28;20027;-85
2023/07/27 00:03:22;;;;;;;3.42;1.25;;;;;;;17.31;61.81;94277.03;5081100;28;20034;-86
2023/07/27 00:05:48;;;;;;;3.45;1.02;;;;;;;17.36;59.46;94284.81;5097701;28;20035;-85
2023/07/27 00:08:32;;;;;;;3.58;1.30;;;;;;;17.37;60.03;94286.38;5098011;28;20039;-85
2023/07/27 00:10:57;;;;;;;2.40;1.30;;;;;;;17.19;61.38;94280.28;5115473;28;20040;-86
2023/07/27 00:13:41;;;;;;;4.18;1.20;;;;;;;16.88;66.09;94279.31;5097570;28;20137;-85
2023/07/27 00:16:07;;;;;;;4.90;1.13;;;;;;;17.11;67.15;94284.47;5097845;28;20020;-86
2023/07/27 00:18:32;;;;;;;3.33;1.27;;;;;;;17.21;69.41;94276.25;5097751;28;20381;-85
2023/07/27 00:20:57;;;;;;;1.48;0.88;;;;;;;16.85;71.16;94277.25;5096953;28;20466;-86
2023/07/27 00:23:23;;;;;;;3.35;1.45;;;;;;;16.93;67.49;94288.97;5116125;28;20048;-86
2023/07/27 00:25:49;;;;;;;2.25;1.35;;;;;;;16.94;68.24;94291.28;5115981;28;20047;-85
2023/07/27 00:28:14;;;;;;;2.20;1.27;;;;;;;16.64;69.59;94290.28;5097769;28;20035;-86
2023/07/27 00:30:40;;;;;;;2.92;1.55;;;;;;;15.70;82.86;94294.50;5097234;28;20031;-85
2023/07/27 00:33:05;;;;;;;2.13;1.30;;;;;;;15.55;81.04;94291.16;5097383;28;20031;-84
2023/07/27 00:35:53;;;;;;;1.77;0.80;;;;;;;15.66;78.67;94291.69;5115869;28;20368;-85
2023/07/27 00:38:18;;;;;;;2.08;1.55;;;;;;;16.01;73.35;94291.16;5115540;28;20031;-85
2023/07/27 00:41:03;;;;;;;2.85;1.40;;;;;;;16.43;68.20;94290.84;5097148;28;20041;-85
2023/07/27 00:43:28;;;;;;;1.95;1.30;;;;;;;16.68;65.26;94291.25;5097445;28;20107;-84
2023/07/27 00:45:54;;;;;;;1.98;1.10;;;;;;;16.97;63.74;94300.50;5097232;28;20028;-83
2023/07/27 00:48:20;;;;;;;1.83;1.23;;;;;;;17.05;62.67;94297.09;5080549;28;20108;-85
2023/07/27 00:50:46;;;;;;;4.88;1.17;;;;;;;17.16;61.51;94294.94;5096858;28;20471;-85
2023/07/27 00:53:12;;;;;;;2.42;1.38;;;;;;;17.13;61.60;94292.13;5097235;28;20031;-84
2023/07/27 00:55:37;;;;;;;2.38;1.40;;;;;;;16.93;63.37;94289.72;5080521;28;20126;-84
2023/07/27 00:58:03;;;;;;;2.92;1.30;;;;;;;16.37;67.71;94300.78;5115309;28;20057;-84
2023/07/27 01:00:30;;;;;;;2.55;1.25;;;;;;;16.32;69.97;94305.44;5096866;28;20032;-85
2023/07/27 01:02:55;;;;;;;7.13;1.20;;;;;;;16.44;69.80;94302.22;5097293;28;20027;-85
2023/07/27 01:05:40;;;;;;;2.10;1.27;;;;;;;16.04;69.81;94295.84;5097027;28;20088;-84
2023/07/27 01:08:24;;;;;;;3.72;1.45;;;;;;;16.21;68.94;94299.63;5115116;28;20035;-84
2023/07/27 01:11:09;;;;;;;2.08;1.00;;;;;;;16.17;68.73;94304.75;5096732;28;20425;-84
2023/07/27 01:13:41;;;;;;;4.00;1.60;;;;;;;16.17;67.86;94304.75;5096960;28;20031;-83
2023/07/27 01:16:37;;;;;;;2.70;1.20;;;;;;;16.41;70.13;94303.59;5080503;28;20032;-85
2023/07/27 01:19:08;;;;;;;1.63;1.08;;;;;;;16.47;69.81;94299.72;5096372;28;20028;-84
2023/07/27 01:21:40;;;;;;;2.10;1.20;;;;;;;15.93;71.23;94297.97;5115033;28;20189;-85
2023/07/27 01:28:11;;;;;;;2.08;0.95;;;;;;;16.03;71.23;94296.13;5099822;28;20149;-85
2023/07/27 01:30:55;;;;;;;1.77;1.20;;;;;;;16.24;71.84;94299.81;5117721;28;20062;-85
2023/07/27 01:36:22;;;;;;;5.68;1.50;;;;;;;15.84;71.11;94299.72;5103241;28;20039;-85
2023/07/27 01:38:48;;;;;;;5.20;1.38;;;;;;;15.74;71.20;94310.53;5099933;28;20576;-84
2023/07/27 01:41:15;;;;;;;3.58;1.25;;;;;;;15.66;73.83;94312.84;5100479;28;20340;-85
2023/07/27 01:46:26;;;;;;;4.85;1.38;;;;;;;15.33;80.07;94305.13;5103056;28;20126;-85
2023/07/27 01:48:54;;;;;;;2.72;1.70;;;;;;;15.19;77.51;94307.00;5099746;28;20023;-85
2023/07/27 01:51:20;;;;;;;2.90;1.33;;;;;;;15.75;77.16;94304.97;5100099;28;20027;-85
2023/07/27 01:53:47;;;;;;;4.82;1.25;;;;;;;15.84;76.28;94305.00;5100098;28;20031;-85
2023/07/27 01:56:13;;;;;;;2.53;1.27;;;;;;;15.97;74.32;94314.75;5083101;28;20035;-85
2023/07/27 01:58:39;;;;;;;2.42;1.30;;;;;;;15.74;75.42;94313.97;5099299;28;20351;-85
2023/07/27 02:01:04;;;;;;;2.65;1.65;;;;;;;15.77;73.35;94317.84;5081979;28;20395;-85
2023/07/27 02:03:30;;;;;;;2.20;1.27;;;;;;;15.38;76.40;94318.22;5099417;28;20027;-85
2023/07/27 02:05:57;;;;;;;6.20;1.70;;;;;;;15.04;80.10;94311.53;5099370;28;20059;-84
2023/07/27 02:08:22;;;;;;;2.30;1.23;;;;;;;15.04;81.82;94308.91;5082716;28;20348;-84
2023/07/27 02:11:10;;;;;;;2.75;1.25;;;;;;;15.49;77.72;94318.75;5098701;28;20031;-85
2023/07/27 02:14:01;;;;;;;2.90;1.10;;;;;;;15.75;76.26;94317.38;5115690;28;20032;-85
2023/07/27 02:16:36;;;;;;;2.35;1.45;;;;;;;15.74;77.53;94319.25;5116717;28;20382;-85
2023/07/27 02:19:04;;;;;;;2.30;1.20;;;;;;;15.88;75.98;94321.81;5098684;28;20071;-85
2023/07/27 02:21:30;;;;;;;2.20;1.20;;;;;;;15.82;74.51;94331.72;5099151;28;20050;-85
2023/07/27 02:23:58;;;;;;;3.47;1.45;;;;;;;15.86;74.12;94328.50;5099352;28;20399;-85
2023/07/27 02:32:30;;;;;;;3.65;1.50;;;;;;;15.84;73.04;94328.78;5101777;28;20067;-85
2023/07/27 02:34:56;;;;;;;4.32;1.30;;;;;;;15.38;77.61;94330.63;5117264;28;20111;-85
2023/07/27 02:37:40;;;;;;;2.65;1.13;;;;;;;15.77;76.18;94328.41;5077902;28;20220;-85
2023/07/27 02:40:06;;;;;;;3.10;1.50;;;;;;;15.12;77.64;94324.06;5078225;28;20089;-85
2023/07/27 02:42:31;;;;;;;2.15;1.20;;;;;;;15.47;73.28;94315.66;5095865;28;20119;-85
2023/07/27 02:44:57;;;;;;;3.35;1.27;;;;;;;15.73;71.28;94317.69;5062220;28;20459;-85
2023/07/27 02:47:22;;;;;;;2.30;1.40;;;;;;;15.86;68.64;94320.56;5079267;28;20058;-85
2023/07/27 02:49:48;;;;;;;2.92;1.45;;;;;;;15.90;68.00;94322.31;5061798;28;20024;-85
2023/07/27 02:54:57;;;;;;;4.18;1.20;;;;;;;15.35;74.91;94324.09;5081502;28;20054;-85
2023/07/27 02:57:22;;;;;;;4.10;1.40;;;;;;;15.25;75.35;94321.69;5078354;28;20036;-85
2023/07/27 02:59:48;;;;;;;2.30;1.20;;;;;;;15.31;78.25;94320.47;5078477;28;20445;-86
2023/07/27 03:02:13;;;;;;;2.50;1.23;;;;;;;15.55;77.03;94322.84;5096638;28;20054;-84
2023/07/27 03:04:39;;;;;;;4.18;1.48;;;;;;;15.68;74.69;94326.50;5078782;28;20028;-84
2023/07/27 03:07:23;;;;;;;2.13;1.17;;;;;;;15.72;73.27;94321.41;5078569;28;20035;-84
2023/07/27 03:09:51;;;;;;;4.53;1.90;;;;;;;15.29;74.01;94325.28;5096165;28;20028;-86
2023/07/27 03:15:01;;;;;;;1.90;1.10;;;;;;;15.26;76.02;94333.78;5080962;28;20115;-85
2023/07/27 03:17:27;;;;;;;2.03;1.15;;;;;;;15.54;75.28;94331.06;5095389;28;20015;-85
2023/07/27 03:19:52;;;;;;;5.70;1.40;;;;;;;15.47;73.93;94342.03;5077754;28;20034;-85
2023/07/27 03:22:37;;;;;;;2.65;1.30;;;;;;;15.63;72.35;94344.34;5061599;28;20032;-85
2023/07/27 03:28:05;;;;;;;2.95;1.27;;;;;;;15.43;69.46;94338.44;5080840;28;20031;-85
2023/07/27 03:30:50;;;;;;;1.80;1.10;;;;;;;15.51;72.17;94342.22;5095709;28;20028;-85
2023/07/27 03:33:34;;;;;;;2.28;1.33;;;;;;;15.74;72.29;94343.03;5095993;28;20028;-85
2023/07/27 03:35:59;;;;;;;4.20;1.70;;;;;;;15.72;69.62;94342.53;5096060;28;20039;-85
2023/07/27 03:38:24;;;;;;;3.63;1.52;;;;;;;15.74;69.59;94347.50;5094787;28;20032;-85
2023/07/27 03:40:50;;;;;;;2.40;1.20;;;;;;;15.66;70.62;94347.16;5077347;28;20111;-85
2023/07/27 03:43:15;;;;;;;3.03;1.38;;;;;;;15.61;73.41;94357.06;5077705;28;20035;-85
2023/07/27 03:45:41;;;;;;;3.72;1.67;;;;;;;15.34;74.35;94351.53;5077790;28;20581;-85
2023/07/27 03:50:50;;;;;;;4.10;1.50;;;;;;;14.66;76.88;94353.97;5095370;28;20109;-85
2023/07/27 03:53:15;;;;;;;2.58;1.42;;;;;;;15.10;75.68;94351.81;5076990;28;20416;-85
2023/07/27 03:58:25;;;;;;;3.42;1.25;;;;;;;15.38;76.77;94349.09;5095552;28;20047;-85
2023/07/27 04:00:50;;;;;;;2.75;1.27;;;;;;;15.37;75.92;94358.09;5077304;28;20044;-84
2023/07/27 04:06:00;;;;;;;2.70;1.38;;;;;;;15.50;73.80;94361.81;5080098;28;20092;-84
2023/07/27 04:08:25;;;;;;;4.45;1.30;;;;;;;15.50;72.36;94359.94;5077270;28;20028;-85
2023/07/27 04:11:09;;;;;;;2.00;1.40;;;;;;;14.76;78.46;94353.00;5076799;28;20028;-85
2023/07/27 04:13:37;;;;;;;2.65;1.33;;;;;;;14.62;77.58;94361.69;5095357;28;20054;-85
2023/07/27 04:16:03;;;;;;;2.67;1.30;;;;;;;14.86;78.13;94354.66;5095248;28;20030;-85
2023/07/27 04:18:29;;;;;;;2.03;1.10;;;;;;;15.13;76.20;94354.63;5077382;28;20062;-84
2023/07/27 04:20:54;;;;;;;2.22;1.38;;;;;;;14.82;81.76;94360.53;5095012;28;20438;-84
2023/07/27 04:23:24;;;;;;;2.75;1.33;;;;;;;15.19;77.70;94359.78;5078119;28;20354;-84
2023/07/27 04:28:33;;;;;;;2.13;1.40;;;;;;;15.41;76.00;94375.69;5094939;28;20039;-85
2023/07/27 04:30:59;;;;;;;3.10;1.48;;;;;;;15.17;75.21;94370.66;5076956;28;20035;-84
2023/07/27 04:36:27;;;;;;;6.30;1.30;;;;;;;14.92;78.76;94374.56;5095277;28;20043;-85
2023/07/27 04:38:52;;;;;;;2.10;1.17;;;;;;;14.72;84.20;94375.78;5076540;28;20088;-84
2023/07/27 04:41:18;;;;;;;2.33;1.40;;;;;;;15.06;80.45;94372.75;5094994;28;20028;-84
2023/07/27 04:43:43;;;;;;;2.78;1.35;;;;;;;15.37;79.04;94371.28;5076897;28;20036;-85
2023/07/27 04:48:52;;;;;;;4.45;1.25;;;;;;;15.79;79.52;94379.88;5079290;28;20163;-85
2023/07/27 04:51:20;;;;;;;2.72;1.40;;;;;;;15.82;80.32;94379.28;5095272;28;20107;-84
2023/07/27 04:53:45;;;;;;;2.42;1.50;;;;;;;15.90;82.20;94380.44;5076985;28;20036;-85
2023/07/27 04:56:11;;;;;;;3.08;1.70;;;;;;;16.05;81.11;94381.16;5094978;28;20046;-85
2023/07/27 04:58:36;;;;;;;4.25;1.58;;;;;;;16.09;79.25;94382.13;5076869;28;20032;-85
2023/07/27 05:03:45;;;;;;;2.42;1.58;;;;;;;16.29;74.05;94382.69;5096648;28;20088;-85
2023/07/27 05:06:11;;;;;;;2.88;1.35;;;;;;;16.32;78.49;94387.38;5098840;28;20751;-85
2023/07/27 05:08:55;;;;;;;2.05;1.10;;;;;;;16.30;77.31;94385.06;5097477;28;20040;-85
2023/07/27 05:11:21;;;;;;;4.05;1.45;;;;;;;16.35;77.20;94386.78;5080564;28;20035;-85
2023/07/27 05:13:46;;;;;;;2.25;1.27;;;;;;;16.42;76.98;94389.78;5098683;28;20641;-85
2023/07/27 05:16:11;;;;;;;2.05;1.20;;;;;;;16.01;76.10;94388.94;5097580;28;20031;-84
2023/07/27 05:21:21;;;;;;;3.03;1.55;;;;;;;15.57;97.54;94396.47;5083004;28;20096;-85
2023/07/27 05:23:46;;;;;;;3.15;1.38;;;;;;;15.84;100.00;94400.13;5098642;28;20138;-84
2023/07/27 05:26:11;;;;;;;2.30;1.30;;;;;;;16.14;100.00;94400.50;5098740;28;20047;-84
2023/07/27 05:28:56;;;;;;;2.70;1.33;;;;;;;16.07;99.02;94397.50;5079539;28;20036;-84
2023/07/27 05:34:07;;;;;;;2.42;1.40;;;;;;;16.07;100.00;94408.09;5116157;28;20099;-84
2023/07/27 05:36:33;;;;;;;5.95;1.48;;;;;;;16.29;100.00;94412.56;5133363;27;20027;-84
2023/07/27 05:39:17;;;;;;;3.40;1.50;;;;;;;16.73;100.00;94410.13;5103475;27;20050;-84
2023/07/27 05:42:01;;;;;;;1.95;1.35;;;;;;;17.09;100.00;94406.56;5120848;27;20036;-84
2023/07/27 05:44:44;;;;;;;1.52;1.02;;;;;;;17.46;100.00;94413.47;5118445;28;20337;-84
2023/07/27 05:47:10;;;;;;;4.07;1.40;;;;;;;17.62;97.25;94408.53;5118559;28;20032;-84
2023/07/27 05:49:35;;;;;;;1.85;1.08;;;;;;;17.14;100.00;94418.09;5099556;28;20080;-84
2023/07/27 05:52:01;;;;;;;3.28;1.50;;;;;;;17.61;96.51;94423.63;5100004;28;20455;-84
2023/07/27 05:54:26;;;;;;;3.63;1.17;;;;;;;17.69;90.62;94426.59;5099963;28;20028;-84
2023/07/27 05:56:51;;;;;;;2.00;1.30;;;;;;;17.78;88.93;94424.72;5118420;28;20440;-84
2023/07/27 06:02:01;;;;;;;2.50;0.95;;;;;;;16.85;100.00;94432.59;5115164;28;20499;-84
2023/07/27 06:04:27;;;;;;;3.50;1.52;;;;;;;17.19;100.00;94433.81;5098209;28;20035;-84
2023/07/27 06:09:36;;;;;;;2.50;1.40;;;;;;;17.99;100.00;94443.44;5087212;28;20081;-84
2023/07/27 06:12:11;;;;;;;2.15;1.30;;;;;;;18.26;94.01;94438.16;5080117;28;20024;-84
2023/07/27 06:14:38;;;;;;;2.25;1.40;;;;;;;18.44;96.05;94447.66;5097527;28;20039;-84
2023/07/27 06:17:04;;;;;;;2.33;1.42;;;;;;;18.55;89.33;94447.31;5091298;28;20486;-85
2023/07/27 06:19:29;;;;;;;2.33;1.35;;;;;;;18.49;89.22;94447.47;5099315;28;20043;-84
2023/07/27 06:21:54;;;;;;;1.83;1.25;;;;;;;18.55;81.69;94453.38;5117673;28;20118;-84
2023/07/27 06:24:20;;;;;;;1.63;1.20;;;;;;;18.42;78.68;94446.38;5117602;28;20080;-84
2023/07/27 06:29:48;;;;;;;2.25;1.30;;;;;;;18.79;79.85;94454.75;5117248;28;20144;-84
2023/07/27 06:32:14;;;;;;;2.60;1.27;;;;;;;18.90;77.26;94449.84;5117287;28;20040;-84
2023/07/27 06:34:39;;;;;;;2.17;1.30;;;;;;;18.99;83.64;94455.94;5082548;28;20027;-84
2023/07/27 06:37:24;;;;;;;4.82;1.58;;;;;;;19.20;84.56;94460.53;5092683;28;20124;-84
2023/07/27 06:39:49;;;;;;;2.38;1.38;;;;;;;19.26;78.20;94467.25;5113428;27;20038;-84
2023/07/27 06:42:15;;;;;;;2.00;1.45;;;;;;;19.34;74.76;94463.75;5109442;27;20020;-84
2023/07/27 06:44:59;;;;;;;2.60;1.65;;;;;;;19.53;81.81;94459.13;5080731;28;20092;-85
2023/07/27 06:47:24;;;;;;;3.25;1.55;;;;;;;19.63;81.60;94459.53;5081712;28;20031;-84
2023/07/27 06:49:50;;;;;;;2.85;1.60;;;;;;;19.72;67.31;94464.00;5092089;28;20441;-84
2023/07/27 06:52:15;;;;;;;1.77;1.35;;;;;;;19.78;66.27;94462.72;5092148;28;20030;-85
2023/07/27 07:00:28;;;;;;;1.98;1.33;;;;;;;19.99;94.54;94465.41;5116290;28;20130;-85
2023/07/27 07:02:53;;;;;;;3.78;1.73;;;;;;;20.02;93.70;94451.47;5098575;28;20031;-84
2023/07/27 07:05:18;;;;;;;2.20;1.38;;;;;;;19.96;85.40;94458.09;5116970;28;20336;-84
2023/07/27 07:10:28;;;;;;;1.88;1.33;;;;;;;20.38;79.02;94443.97;5116228;28;20086;-84
2023/07/27 07:12:53;;;;;;;2.28;1.52;;;;;;;20.48;70.22;94446.19;5117004;28;20040;-84
2023/07/27 07:15:19;;;;;;;2.88;1.35;;;;;;;20.63;68.46;94444.03;5116738;28;20068;-84
2023/07/27 07:17:44;;;;;;;2.58;1.77;;;;;;;20.46;72.50;94445.00;5098697;28;20088;-84
2023/07/27 07:20:29;;;;;;;2.20;1.35;;;;;;;20.39;86.99;94448.19;5097732;28;20031;-85
2023/07/27 07:25:57;;;;;;;3.97;1.42;;;;;;;20.64;71.99;94450.91;5115064;28;20043;-85
2023/07/27 07:28:23;;;;;;;4.22;1.33;;;;;;;20.79;83.40;94460.16;5094755;28;20016;-85
2023/07/27 07:31:07;;;;;;;2.78;1.50;;;;;;;20.67;88.28;94452.91;5080413;28;20336;-85
2023/07/27 07:33:32;;;;;;;1.98;1.25;;;;;;;20.62;90.76;94453.13;5097839;28;20100;-85
2023/07/27 07:35:58;;;;;;;3.38;1.33;;;;;;;20.83;76.73;94450.41;5078727;28;20039;-84
2023/07/27 07:38:23;;;;;;;2.58;1.25;;;;;;;20.94;84.19;94457.97;5115889;28;20028;-84
2023/07/27 07:40:49;;;;;;;3.65;1.30;;;;;;;20.83;89.53;94460.31;5097585;28;20063;-85
2023/07/27 07:43:14;;;;;;;2.38;1.40;;;;;;;21.11;87.74;94463.09;5116659;28;20039;-85
2023/07/27 07:45:39;;;;;;;2.35;1.30;;;;;;;21.26;85.80;94459.00;5097814;28;20044;-85
2023/07/27 07:48:05;;;;;;;2.75;1.38;;;;;;;21.28;86.85;94467.44;5116029;28;20032;-85
2023/07/27 07:53:14;;;;;;;2.20;1.23;;;;;;;21.78;82.41;94461.31;5116060;28;20105;-85
2023/07/27 07:55:40;;;;;;;4.03;1.77;;;;;;;21.55;79.60;94467.88;5114259;28;20110;-84
2023/07/27 07:58:24;;;;;;;3.22;1.60;;;;;;;21.43;71.91;94463.31;5136337;27;20038;-86
2023/07/27 08:00:49;;;;;;;2.53;1.45;;;;;;;21.44;73.25;94459.53;5135689;27;20037;-84
2023/07/27 08:03:15;;;;;;;8.77;1.85;;;;;;;21.50;77.36;94457.41;5136329;27;20034;-85
2023/07/27 08:05:59;;;;;;;2.10;1.40;;;;;;;21.51;76.92;94463.53;5136501;27;20118;-84
2023/07/27 08:11:09;;;;;;;2.72;1.52;;;;;;;21.45;76.31;94449.66;5136273;27;20034;-85
2023/07/27 08:13:34;;;;;;;5.55;1.50;;;;;;;21.55;77.52;94464.41;5136240;27;20027;-85
2023/07/27 08:16:00;;;;;;;5.50;1.75;;;;;;;21.82;75.13;94457.66;5136586;27;20035;-85
2023/07/27 08:18:44;;;;;;;3.30;1.70;;;;;;;21.68;76.29;94450.00;5136524;27;20031;-85
2023/07/27 08:21:11;;;;;;;3.03;1.63;;;;;;;21.68;74.84;94451.91;5114022;28;20082;-85
2023/07/27 08:23:55;;;;;;;5.15;1.60;;;;;;;21.88;73.28;94456.28;5117229;28;20110;-85
2023/07/27 08:26:20;;;;;;;9.77;1.70;;;;;;;22.14;67.86;94460.44;5136166;27;20027;-85
2023/07/27 08:28:47;;;;;;;2.42;1.40;;;;;;;22.14;69.32;94460.44;5136299;28;20087;-85
2023/07/27 08:31:13;;;;;;;5.57;1.95;;;;;;;22.17;73.62;94457.09;5135861;28;20027;-86
2023/07/27 08:33:38;;;;;;;2.88;1.60;;;;;;;22.09;65.01;94460.66;5116355;28;20886;-85
2023/07/27 08:36:22;;;;;;;3.50;1.80;;;;;;;21.89;67.08;94460.50;5105806;28;20036;-85
2023/07/27 08:41:50;;;;;;;;;;;;;;;22.43;68.89;94466.56;5099656;28;20100;-85
2023/07/27 08:49:45;;;;;;;4.55;1.77;;;;;;;22.10;69.01;94459.56;5098763;28;20028;-87
2023/07/27 08:54:58;;;;;;;13.68;2.20;;;;;;;22.39;73.61;94459.56;5099170;28;20240;-84
2023/07/27 08:57:24;;;;;;;2.40;1.58;;;;;;;21.75;78.14;94449.44;5099202;28;20114;-85
2023/07/27 08:59:50;;;;;;;6.28;1.90;;;;;;;22.37;73.11;94451.13;5098375;28;20036;-85
2023/07/27 09:02:34;;;;;;;5.65;2.15;;;;;;;22.72;73.56;94445.97;5081001;28;20035;-85
2023/07/27 09:05:00;;;;;;;2.90;1.55;;;;;;;22.86;67.48;94444.78;5081056;28;20040;-84
2023/07/27 09:07:25;;;;;;;5.53;1.60;;;;;;;22.82;72.95;94451.94;5098932;28;20062;-85
2023/07/27 09:09:51;;;;;;;5.20;1.50;;;;;;;22.84;72.64;94452.34;5097211;28;20032;-84
2023/07/27 09:12:36;;;;;;;4.28;1.50;;;;;;;22.75;77.88;94441.84;5098562;28;20035;-85
2023/07/27 09:18:01;;;;;;;5.80;1.55;;;;;;;23.25;77.60;94460.97;5100798;28;20059;-87
2023/07/27 09:20:27;;;;;;;3.88;1.83;;;;;;;23.42;75.49;94456.41;5081321;28;20069;-85
2023/07/27 09:22:55;;;;;;;7.35;1.92;;;;;;;23.30;84.24;94451.94;5100609;28;20142;-85
2023/07/27 09:25:22;;;;;;;5.00;1.90;;;;;;;23.21;83.99;94448.66;5119150;28;20432;-84
2023/07/27 09:27:47;;;;;;;3.45;1.95;;;;;;;23.58;73.97;94454.47;5084062;28;20084;-86
2023/07/27 09:30:16;;;;;;;3.35;1.92;;;;;;;23.36;71.27;94457.78;5099464;28;20047;-84
2023/07/27 09:32:41;;;;;;;4.30;1.73;;;;;;;23.53;75.19;94454.75;5079854;28;20097;-84
2023/07/27 09:35:30;;;;;;;4.07;1.98;;;;;;;23.45;75.30;94453.03;5080535;28;20027;-83
2023/07/27 09:41:17;;;;;;;3.67;1.73;;;;;;;23.27;79.13;94458.75;5101858;28;20043;-86
2023/07/27 09:43:43;;;;;;;3.95;1.92;;;;;;;23.29;74.99;94448.50;5097536;28;20050;-86
2023/07/27 09:48:54;;;;;;;7.75;2.42;;;;;;;23.90;76.22;94464.31;5115300;28;20046;-85
2023/07/27 09:51:21;;;;;;;5.45;2.13;;;;;;;23.85;79.28;94462.69;5097933;28;20436;-84
2023/07/27 09:53:47;;;;;;;4.53;2.00;;;;;;;23.62;84.08;94461.81;5098621;28;20388;-86
2023/07/27 09:56:31;;;;;;;7.25;2.35;;;;;;;23.35;81.67;94461.59;5081971;28;20092;-85
2023/07/27 09:58:58;;;;;;;6.60;2.50;;;;;;;23.39;76.69;94457.13;5097586;27;21694;-86
2023/07/27 10:01:23;;;;;;;6.25;2.10;;;;;;;23.57;82.88;94457.50;5119332;27;20030;-87
2023/07/27 10:03:49;;;;;;;10.95;2.10;;;;;;;23.70;83.52;94455.50;5082327;28;20023;-87
2023/07/27 10:06:16;;;;;;;8.52;2.90;;;;;;;23.56;78.48;94445.25;5096399;28;20020;-84
2023/07/27 10:08:42;;;;;;;8.73;2.70;;;;;;;23.55;82.14;94441.81;5096270;28;20317;-86
2023/07/27 10:11:08;;;;;;;9.38;3.00;;;;;;;23.35;80.45;94446.34;5078702;28;20032;-86
2023/07/27 10:13:40;;;;;;;6.10;3.00;;;;;;;23.48;96.10;94441.66;5116614;28;20035;-85
2023/07/27 10:16:09;;;;;;;14.77;4.60;;;;;;;23.25;89.17;94444.16;5118090;27;20023;-86
2023/07/27 10:18:39;;;;;;;8.90;4.18;;;;;;;23.13;92.77;94445.03;5118572;27;20023;-84
2023/07/27 10:21:24;;;;;;;11.32;3.75;;;;;;;23.10;90.73;94446.50;5133435;27;20345;-82
2023/07/27 10:23:59;;;;;;;7.85;4.13;;;;;;;23.43;91.32;94440.00;5077862;28;20032;-83
2023/07/27 10:26:51;;;;;;;6.40;3.15;;;;;;;23.87;93.01;94435.56;5095993;28;20024;-85
2023/07/27 10:29:23;;;;;;;5.55;3.55;;;;;;;24.04;86.90;94442.47;5077741;28;20024;-85
2023/07/27 10:32:08;;;;;;;10.20;3.65;;;;;;;24.25;80.11;94436.00;5095833;28;20111;-86
2023/07/27 10:34:35;;;;;;;5.82;2.97;;;;;;;24.12;75.97;94446.06;5095824;28;20028;-85
2023/07/27 10:37:02;;;;;;;8.50;3.30;;;;;;;23.88;85.39;94445.16;5078307;28;20119;-86
2023/07/27 10:39:50;;;;;;;6.78;3.22;;;;;;;23.89;89.23;94445.94;5115986;28;20027;-87
2023/07/27 10:42:20;;;;;;;5.72;2.90;;;;;;;23.94;95.59;94438.41;5099271;28;20096;-86
2023/07/27 10:44:46;;;;;;;6.85;2.60;;;;;;;23.84;89.23;94438.97;5098898;28;20031;-86
2023/07/27 10:47:25;;;;;;;9.82;3.10;;;;;;;24.43;86.75;94434.41;5112575;28;20036;-86
2023/07/27 10:49:55;;;;;;;7.05;2.80;;;;;;;24.21;87.32;94429.78;5095936;28;20031;-87
2023/07/27 10:52:27;;;;;;;10.13;3.10;;;;;;;24.05;92.26;94427.94;5079335;28;20122;-86
2023/07/27 10:55:11;;;;;;;10.38;2.92;;;;;;;24.37;86.47;94424.34;5096597;28;20027;-86
2023/07/27 10:57:37;;;;;;;6.97;2.65;;;;;;;24.47;79.60;94418.41;5096414;28;20028;-86
2023/07/27 11:03:27;;;;;;;13.20;3.05;;;;;;;24.18;90.91;94425.13;5081399;28;20073;-86
2023/07/27 11:08:49;;;;;;;8.25;2.80;;;;;;;24.58;91.82;94421.28;5095964;28;20157;-86
2023/07/27 11:11:37;;;;;;;9.30;2.95;;;;;;;25.10;84.61;94418.31;5096211;28;20019;-86
2023/07/27 11:14:06;;;;;;;6.60;2.80;;;;;;;24.52;86.26;94412.75;5077992;28;20437;-86
2023/07/27 11:16:37;;;;;;;6.25;2.35;;;;;;;24.99;88.94;94418.94;5078333;28;20032;-85
2023/07/27 11:19:07;;;;;;;8.30;2.80;;;;;;;24.83;87.98;94410.25;5078337;28;20433;-85
2023/07/27 11:21:35;;;;;;;7.30;2.60;;;;;;;25.18;88.07;94414.63;5077990;28;20062;-86
2023/07/27 11:24:02;;;;;;;9.07;2.88;;;;;;;25.49;79.39;94417.38;5078350;28;20781;-85
2023/07/27 11:26:28;;;;;;;8.43;2.30;;;;;;;25.23;81.91;94411.63;5095893;28;20130;-84
2023/07/27 11:28:57;;;;;;;5.05;2.35;;;;;;;24.81;89.40;94407.13;5095364;28;20393;-87
2023/07/27 11:34:06;;;;;;;3.65;2.38;;;;;;;24.50;90.87;94408.88;5096556;28;20038;-85
2023/07/27 11:36:33;;;;;;;6.00;2.15;;;;;;;24.18;90.68;94414.44;5077497;28;20128;-86
2023/07/27 11:38:59;;;;;;;11.02;2.33;;;;;;;24.65;91.44;94410.69;5076946;28;20102;-83
2023/07/27 11:41:29;;;;;;;10.15;2.92;;;;;;;24.81;90.08;94415.16;5077536;28;20064;-87
2023/07/27 11:44:04;;;;;;;5.25;2.15;;;;;;;24.10;86.65;94410.84;5095941;28;20050;-87
2023/07/27 11:46:50;;;;;;;;;;;;;;;;;;;;;
2023/07/27 11:49:22;;;;;;;3.88;1.90;;;;;;;24.79;87.13;94401.38;5093735;28;20034;-84
2023/07/27 11:51:51;;;;;;;6.05;2.80;;;;;;;24.23;91.71;94404.22;5096905;28;20058;-82
2023/07/27 11:54:37;;;;;;;7.72;2.75;;;;;;;23.90;98.42;94410.03;5097159;28;20024;-86
2023/07/27 11:57:24;;;;;;;6.65;2.17;;;;;;;23.67;100.00;94414.16;5061038;28;20065;-86
2023/07/27 12:00:13;;;;;;;7.50;2.40;;;;;;;24.45;100.00;94403.81;5077194;28;20137;-86
2023/07/27 12:02:46;;;;;;;6.88;2.47;;;;;;;25.01;95.39;94413.19;5061141;28;20040;-85
2023/07/27 12:05:34;;;;;;;5.65;2.90;;;;;;;24.78;90.50;94413.22;5077539;28;20040;-85
2023/07/27 12:10:54;;;;;;;9.20;2.50;;;;;;;24.49;93.39;94401.97;5099899;28;20038;-82
2023/07/27 12:13:39;;;;;;;3.90;1.90;;;;;;;24.69;89.36;94406.19;5097140;28;20398;-85
2023/07/27 12:16:07;;;;;;;9.52;2.60;;;;;;;24.70;90.94;94406.94;5097544;28;20031;-85
2023/07/27 12:18:32;;;;;;;5.15;2.33;;;;;;;24.92;89.87;94410.00;5115374;28;20027;-82
2023/07/27 12:20:58;;;;;;;4.57;2.22;;;;;;;24.73;91.26;94400.09;5096171;28;20044;-86
2023/07/27 12:23:25;;;;;;;10.27;2.53;;;;;;;24.19;92.30;94399.91;5107973;27;20084;-85
2023/07/27 12:25:52;;;;;;;7.25;2.60;;;;;;;24.89;90.52;94402.66;5136448;27;20038;-86
2023/07/27 12:28:18;;;;;;;4.75;1.63;;;;;;;25.22;88.69;94402.03;5136432;27;20454;-84
2023/07/27 12:30:43;;;;;;;4.60;2.10;;;;;;;24.62;89.44;94400.69;5135957;28;20074;-85
2023/07/27 12:35:57;;;;;;;9.77;2.15;;;;;;;24.78;89.45;94403.28;5120418;28;20038;-83
2023/07/27 12:38:22;;;;;;;3.80;1.83;;;;;;;25.48;87.08;94400.50;5118119;28;20336;-84
2023/07/27 12:40:49;;;;;;;7.15;2.88;;;;;;;25.19;86.14;94399.31;5135617;28;20034;-85
2023/07/27 12:43:33;;;;;;;5.35;1.98;;;;;;;24.31;92.00;94394.41;5089917;28;20031;-82
2023/07/27 12:45:58;;;;;;;9.10;2.45;;;;;;;24.74;88.20;94398.97;5094976;28;20446;-84
2023/07/27 12:48:24;;;;;;;7.07;2.33;;;;;;;24.62;91.56;94407.97;5095071;28;20044;-85
2023/07/27 12:50:49;;;;;;;4.90;2.08;;;;;;;25.54;89.03;94401.75;5059803;28;20041;-84
2023/07/27 12:53:15;;;;;;;4.97;2.10;;;;;;;26.30;82.01;94401.91;5060302;28;20032;-85
2023/07/27 12:55:40;;;;;;;8.68;2.63;;;;;;;26.17;77.03;94395.22;5060225;28;20093;-85
2023/07/27 12:58:24;;;;;;;5.95;1.92;;;;;;;25.69;83.46;94400.03;5077172;28;20414;-86
2023/07/27 13:00:50;;;;;;;6.38;2.20;;;;;;;25.97;80.37;94404.19;5059757;28;20039;-82
2023/07/27 13:03:15;;;;;;;6.30;2.22;;;;;;;25.16;84.88;94403.47;5094685;28;20032;-84
2023/07/27 13:05:41;;;;;;;4.65;1.77;;;;;;;25.86;81.40;94405.22;5077105;28;20036;-85
2023/07/27 13:08:06;;;;;;;9.65;2.40;;;;;;;25.45;77.68;94398.53;5059962;28;20024;-85
2023/07/27 13:10:50;;;;;;;6.55;2.20;;;;;;;25.75;77.26;94399.69;5059116;28;20032;-86
2023/07/27 13:13:16;;;;;;;5.43;2.17;;;;;;;25.06;83.29;94402.19;5094663;28;20038;-86
2023/07/27 13:15:44;;;;;;;4.72;1.90;;;;;;;25.21;82.55;94403.16;5094521;28;20110;-85
2023/07/27 13:18:14;;;;;;;6.88;2.13;;;;;;;25.97;77.97;94398.84;5076882;28;20077;-85
2023/07/27 13:20:40;;;;;;;3.60;1.88;;;;;;;26.16;78.69;94399.03;5076001;28;20024;-87
2023/07/27 13:28:33;;;;;;;7.00;1.90;;;;;;;27.62;80.59;94391.84;5098341;28;20030;-86
2023/07/27 13:30:59;;;;;;;4.20;1.70;;;;;;;27.45;69.40;94390.56;5079613;28;20024;-85
2023/07/27 13:33:25;;;;;;;4.40;1.58;;;;;;;26.70;73.47;94380.03;5099392;28;20437;-84
2023/07/27 13:35:50;;;;;;;4.55;1.90;;;;;;;25.62;76.14;94366.97;5092281;27;20111;-85
2023/07/27 13:38:34;;;;;;;6.70;2.40;;;;;;;25.20;76.69;94372.13;5109186;27;20031;-85
2023/07/27 13:41:00;;;;;;;3.25;1.67;;;;;;;25.59;77.67;94363.09;5080241;28;20032;-87